Potou, China
Current Conditions -  °F | °C
As of 10:00 AM on Saturday 22 Nov 2014 (Local Time) from ZBTJ Reporting Station
Clear Clear  
Wind Chill: 44°   Ceiling: Unl
Heat Index: 48°   Visibility: 4mi
Dew Point: 16°   Wind: 9mph
Humidity: 27%   Direction: 50°NE
Pressure: 30.36"   Gusts: NA
Location:  38.08°N, 116.55°E
Report Text: ZBTJ 220200Z 05004MPS 7000 NSC 09/M09 Q1028 NOSIG
Loading
Personal Weather Stations






























Interactive Weather Map New forecast layout! Learn more

10-Day Weather Forecast

Advertisements
Track Severe Weather on mobile